Meeker, Louisiana
Current Conditions -  °F | °C
As of 7:10 AM on Saturday 25 Oct 2014 (Local Time) from KAEX Reporting Station
Haze Haze  
Wind Chill: 47°   Ceiling: Unl
Heat Index: 47°   Visibility: 5mi
Dew Point: 47°   Wind: 3mph
Humidity: 100%   Direction: 250°WSW
Pressure: 30.14"   Gusts: NA
Location:  31.1282°N, 92.3823°W
Report Text: KAEX 251210Z 25003KT 5SM BR FEW003 08/08 A3014 RMK AO2 T00830083 $
Loading
Personal Weather Stations






























Interactive Weather Map
Tropical Storm Tracking
New forecast layout! Learn more

10-Day Weather Forecast

Advertisements
Track Severe Weather on mobile